Time;durP1;ratioP1;P1;durP2;ratioP2;P2;SDS_P1;SDS_P2;PMS_P1;PMS_P2;Temp;Humidity;BMP_temperature;BMP_pressure;BME280_temperature;BME280_humidity;BME280_pressure;Samples;Min_cycle;Max_cycle;Signal;HPM_P1;HPM_P2
2022/03/27 00:02:08;;;;;;;33.28;15.55;;;;;;;7.83;46.79;101264.09;4438730;32;20480;-69
2022/03/27 00:04:36;;;;;;;39.22;16.45;;;;;;;7.74;46.96;101266.59;4438705;32;20121;-69
2022/03/27 00:07:04;;;;;;;42.67;17.30;;;;;;;7.71;46.86;101256.06;4438623;32;20385;-69
2022/03/27 00:09:31;;;;;;;33.58;14.15;;;;;;;7.70;47.37;101261.28;4438730;32;20123;-69
2022/03/27 00:11:58;;;;;;;32.25;13.48;;;;;;;7.62;46.90;101255.91;4438614;32;20452;-69
2022/03/27 00:14:25;;;;;;;39.38;13.70;;;;;;;7.56;46.54;101255.81;4438873;32;20123;-69
2022/03/27 00:16:52;;;;;;;36.78;12.68;;;;;;;7.48;46.91;101255.72;4424232;32;20111;-69
2022/03/27 00:19:20;;;;;;;30.05;12.35;;;;;;;7.52;48.02;101257.53;4438598;32;20853;-69
2022/03/27 00:21:48;;;;;;;32.85;13.98;;;;;;;7.52;48.36;101254.91;4438588;32;20492;-69
2022/03/27 00:24:15;;;;;;;41.92;17.17;;;;;;;7.47;47.77;101256.59;4438460;32;20097;-69
2022/03/27 00:26:43;;;;;;;33.50;14.93;;;;;;;7.48;48.45;101263.59;4438480;32;20508;-69
2022/03/27 00:29:10;;;;;;;38.13;13.68;;;;;;;7.51;48.39;101261.00;4438456;32;20517;-69
2022/03/27 00:31:38;;;;;;;33.92;13.95;;;;;;;7.40;49.32;101255.62;4438354;32;20101;-69
2022/03/27 00:34:06;;;;;;;29.25;12.75;;;;;;;7.30;49.77;101258.06;4438441;32;20149;-69
2022/03/27 00:36:33;;;;;;;32.72;12.50;;;;;;;7.25;50.26;101257.13;4438381;32;20081;-69
2022/03/27 00:39:00;;;;;;;30.92;12.88;;;;;;;7.26;51.00;101256.28;4438576;32;20151;-69
2022/03/27 00:41:30;;;;;;;33.25;11.48;;;;;;;7.33;51.34;101252.88;4438442;32;20524;-69
2022/03/27 00:43:57;;;;;;;32.33;12.43;;;;;;;7.48;51.50;101258.34;4438146;32;20166;-69
2022/03/27 00:46:24;;;;;;;30.58;12.55;;;;;;;7.54;51.48;101258.44;4438311;32;20093;-69
2022/03/27 00:48:52;;;;;;;34.30;12.32;;;;;;;7.49;51.34;101270.63;4438160;32;20127;-69
2022/03/27 00:51:19;;;;;;;33.85;12.30;;;;;;;7.54;51.56;101261.06;4438156;32;20105;-69
2022/03/27 00:53:46;;;;;;;33.22;12.75;;;;;;;7.56;51.65;101269.84;4438153;32;20105;-69
2022/03/27 00:56:14;;;;;;;26.25;11.43;;;;;;;7.58;51.81;101265.50;4437964;32;20440;-69
2022/03/27 00:58:41;;;;;;;36.15;11.75;;;;;;;7.62;52.01;101266.41;4437870;32;20170;-69
2022/03/27 01:01:24;;;;;;;25.27;11.25;;;;;;;7.58;52.22;101269.84;4437844;32;20159;-69
2022/03/27 01:03:54;;;;;;;26.17;11.35;;;;;;;7.60;52.38;101263.78;4437848;32;20118;-69
2022/03/27 01:06:33;;;;;;;37.05;12.30;;;;;;;7.58;52.24;101259.38;4437709;32;20162;-69
2022/03/27 01:11:49;;;;;;;37.40;11.10;;;;;;;7.52;52.51;101262.78;4437669;32;20093;-69
2022/03/27 01:14:31;;;;;;;24.50;10.88;;;;;;;7.55;52.41;101262.81;4437600;32;20104;-69
2022/03/27 01:17:08;;;;;;;34.30;10.63;;;;;;;7.61;52.81;101264.66;4439783;32;20420;-69
2022/03/27 01:19:47;;;;;;;20.88;10.15;;;;;;;7.80;53.12;101256.16;4439689;32;20111;-69
2022/03/27 01:22:15;;;;;;;24.48;9.27;;;;;;;8.17;52.04;101259.28;4439705;32;20516;-69
2022/03/27 01:24:44;;;;;;;27.52;11.00;;;;;;;8.79;50.75;101260.84;4439869;32;20096;-69
2022/03/27 01:27:11;;;;;;;22.55;10.60;;;;;;;9.16;49.73;101261.16;4439741;32;20111;-69
2022/03/27 01:29:39;;;;;;;24.58;9.48;;;;;;;9.44;48.77;101255.25;4439752;32;20094;-69
2022/03/27 01:32:10;;;;;;;24.73;11.25;;;;;;;9.75;47.96;101256.31;4439794;32;20144;-69
2022/03/27 01:34:37;;;;;;;28.42;9.88;;;;;;;9.86;47.61;101256.38;4439735;32;20397;-69
2022/03/27 01:37:07;;;;;;;28.00;11.23;;;;;;;9.91;47.50;101253.75;4439716;32;20525;-69
2022/03/27 01:39:36;;;;;;;25.12;9.90;;;;;;;9.97;47.41;101257.28;4439621;32;20160;-69
2022/03/27 01:42:05;;;;;;;29.60;10.15;;;;;;;9.96;47.35;101257.28;4439793;32;20089;-69
2022/03/27 01:44:32;;;;;;;31.77;10.73;;;;;;;10.00;47.33;101262.56;4439758;32;20129;-69
2022/03/27 01:47:01;;;;;;;26.52;10.02;;;;;;;10.04;47.09;101259.06;4439867;32;20442;-69
2022/03/27 01:49:29;;;;;;;24.73;11.63;;;;;;;10.09;46.99;101266.12;4439544;32;20102;-69
2022/03/27 01:51:56;;;;;;;29.95;11.25;;;;;;;10.09;46.89;101267.00;4439753;32;20520;-69
2022/03/27 01:54:23;;;;;;;24.70;10.38;;;;;;;10.00;47.00;101277.47;4439904;32;20477;-69
2022/03/27 01:56:50;;;;;;;26.00;11.25;;;;;;;9.99;46.95;101278.34;4439687;32;20488;-69
2022/03/27 01:59:21;;;;;;;20.52;10.20;;;;;;;9.96;47.07;101280.97;4439543;32;20116;-69
2022/03/27 02:01:49;;;;;;;25.73;10.48;;;;;;;9.87;47.11;101279.19;4425186;32;20098;-69
2022/03/27 02:04:17;;;;;;;29.90;11.65;;;;;;;9.74;47.62;101286.12;4439564;32;20504;-69
2022/03/27 02:06:45;;;;;;;22.00;10.20;;;;;;;9.72;47.73;101279.09;4439904;32;20135;-69
2022/03/27 02:09:12;;;;;;;28.50;11.02;;;;;;;9.77;47.79;101280.87;4439560;32;20453;-69
2022/03/27 02:11:41;;;;;;;29.17;11.98;;;;;;;9.81;47.65;101280.00;4439432;32;20113;-69
2022/03/27 02:14:10;;;;;;;30.08;12.15;;;;;;;9.84;47.63;101280.91;4439475;32;20156;-69
2022/03/27 02:16:37;;;;;;;25.83;11.10;;;;;;;9.91;47.58;101266.91;4439820;32;20118;-69
2022/03/27 02:19:09;;;;;;;27.08;11.32;;;;;;;9.99;47.60;101270.44;4439436;32;20480;-69
2022/03/27 02:21:38;;;;;;;28.17;9.85;;;;;;;9.98;47.44;101266.94;4439667;32;20089;-69
2022/03/27 02:24:06;;;;;;;24.87;11.07;;;;;;;10.01;47.39;101268.72;4439382;32;20385;-69
2022/03/27 02:26:34;;;;;;;28.67;12.50;;;;;;;9.99;47.69;101271.31;4438614;32;20487;-69
2022/03/27 02:29:02;;;;;;;28.23;11.38;;;;;;;9.81;48.23;101276.50;4439637;32;20152;-69
2022/03/27 02:31:29;;;;;;;24.42;11.60;;;;;;;9.71;48.51;101274.69;4439389;32;20105;-69
2022/03/27 02:33:56;;;;;;;28.48;11.43;;;;;;;9.55;48.97;101292.16;4439566;32;20164;-69
2022/03/27 02:36:24;;;;;;;29.87;11.25;;;;;;;9.39;49.27;101296.41;4439226;32;20176;-69
2022/03/27 02:38:51;;;;;;;25.02;11.52;;;;;;;9.15;50.19;101305.00;4439511;32;20194;-69
2022/03/27 02:41:18;;;;;;;25.48;11.02;;;;;;;8.97;50.44;101307.44;4439324;32;20516;-69
2022/03/27 02:43:45;;;;;;;27.73;11.27;;;;;;;8.81;50.58;101309.03;4439317;32;20169;-69
2022/03/27 02:46:12;;;;;;;25.83;11.32;;;;;;;8.74;51.36;101309.84;4439282;32;20748;-69
2022/03/27 02:48:40;;;;;;;41.53;13.57;;;;;;;8.81;51.58;101316.94;4439178;32;20097;-69
2022/03/27 02:51:07;;;;;;;28.48;10.93;;;;;;;8.79;50.84;101311.63;4439187;32;20193;-69
2022/03/27 02:53:34;;;;;;;30.60;12.70;;;;;;;8.79;51.16;101308.13;4439203;32;20155;-69
2022/03/27 02:56:04;;;;;;;31.58;11.57;;;;;;;8.77;50.94;101310.75;4439262;32;20151;-69
2022/03/27 02:58:32;;;;;;;30.30;11.63;;;;;;;8.78;51.52;101312.50;4439317;32;20149;-69
2022/03/27 03:01:00;;;;;;;29.25;11.73;;;;;;;8.79;50.32;101311.63;4439187;32;20082;-69
2022/03/27 03:03:27;;;;;;;25.05;11.85;;;;;;;8.62;51.20;101321.09;4439257;32;20217;-69
2022/03/27 03:05:55;;;;;;;36.05;12.27;;;;;;;8.42;51.77;101315.63;4439363;32;20201;-69
2022/03/27 03:08:26;;;;;;;31.87;12.15;;;;;;;8.37;51.65;101322.50;4439110;32;20111;-69
2022/03/27 03:10:54;;;;;;;31.42;12.88;;;;;;;8.38;51.99;101317.34;4439259;32;20121;-69
2022/03/27 03:13:22;;;;;;;27.33;11.32;;;;;;;8.38;52.33;101313.84;4439277;32;20545;-69
2022/03/27 03:15:50;;;;;;;23.52;11.07;;;;;;;8.46;51.97;101319.16;4439060;32;20441;-69
2022/03/27 03:18:17;;;;;;;32.45;11.02;;;;;;;8.71;51.62;101325.56;4439213;32;20101;-70
2022/03/27 03:20:45;;;;;;;27.08;11.45;;;;;;;8.93;51.23;101326.66;4439062;32;20112;-69
2022/03/27 03:23:12;;;;;;;29.25;11.77;;;;;;;9.23;50.59;101321.72;4439111;32;20108;-69
2022/03/27 03:25:42;;;;;;;28.92;11.07;;;;;;;9.65;49.54;101327.31;4439044;32;20123;-69
2022/03/27 03:28:29;;;;;;;26.05;11.57;;;;;;;9.94;48.81;101330.12;4439267;32;20164;-69
2022/03/27 03:30:56;;;;;;;31.40;10.77;;;;;;;10.12;48.38;101332.84;4438951;32;20094;-69
2022/03/27 03:33:25;;;;;;;25.00;11.65;;;;;;;10.17;48.30;101328.47;4439006;32;20176;-69
2022/03/27 03:35:52;;;;;;;37.55;11.93;;;;;;;10.20;48.14;101339.03;4439085;32;20647;-69
2022/03/27 03:38:20;;;;;;;29.15;11.35;;;;;;;10.27;48.19;101338.22;4438378;32;20093;-69
2022/03/27 03:40:47;;;;;;;22.50;11.25;;;;;;;10.28;48.26;101332.09;4438753;32;20101;-69
2022/03/27 03:43:14;;;;;;;27.10;11.77;;;;;;;10.42;48.05;101347.06;4439269;32;20176;-69
2022/03/27 03:45:42;;;;;;;35.15;12.13;;;;;;;10.49;47.81;101339.19;4438793;32;20081;-69
2022/03/27 03:48:09;;;;;;;27.13;12.70;;;;;;;10.49;47.78;101346.19;4438907;32;20123;-69
2022/03/27 03:50:36;;;;;;;26.12;12.52;;;;;;;10.46;47.92;101357.62;4438968;32;20880;-69
2022/03/27 03:53:04;;;;;;;28.55;12.43;;;;;;;10.46;47.77;101359.37;4438716;32;20592;-69
2022/03/27 03:55:32;;;;;;;33.58;11.07;;;;;;;10.42;47.86;101355.81;4438672;32;20077;-69
2022/03/27 03:57:59;;;;;;;31.10;13.13;;;;;;;10.38;47.82;101367.22;4438542;32;20191;-69
2022/03/27 04:00:26;;;;;;;28.52;12.15;;;;;;;10.25;48.17;101368.03;4438705;32;20125;-69
2022/03/27 04:02:54;;;;;;;29.15;12.75;;;;;;;10.18;48.20;101374.16;4438779;32;20093;-69
2022/03/27 04:05:21;;;;;;;30.02;12.23;;;;;;;10.11;48.70;101377.62;4438707;32;20080;-69
2022/03/27 04:07:48;;;;;;;27.45;12.20;;;;;;;10.10;48.48;101373.19;4438832;32;20453;-69
2022/03/27 04:10:16;;;;;;;30.62;12.77;;;;;;;10.04;48.91;101374.06;4438616;32;20144;-69
2022/03/27 04:12:43;;;;;;;29.98;12.75;;;;;;;9.98;49.19;101374.00;4438563;32;20105;-69
2022/03/27 04:15:11;;;;;;;32.03;11.43;;;;;;;9.93;49.26;101375.72;4438556;32;20123;-69
2022/03/27 04:17:44;;;;;;;36.58;12.80;;;;;;;9.96;49.15;101384.50;4438689;32;20093;-69
2022/03/27 04:20:13;;;;;;;30.92;11.95;;;;;;;9.99;49.26;101381.91;4438346;32;20166;-69
2022/03/27 04:22:44;;;;;;;26.80;11.77;;;;;;;9.93;49.74;101392.44;4438291;32;20105;-69
2022/03/27 04:25:14;;;;;;;30.65;12.05;;;;;;;9.94;49.96;101394.19;4438358;32;20489;-69
2022/03/27 04:27:42;;;;;;;25.17;11.70;;;;;;;9.90;50.25;101396.78;4438244;32;20165;-69
2022/03/27 04:30:10;;;;;;;32.92;12.07;;;;;;;9.82;50.30;101397.62;4438312;32;20767;-69
2022/03/27 04:32:38;;;;;;;30.52;11.32;;;;;;;9.82;50.61;101405.50;4438183;32;20120;-69
2022/03/27 04:35:07;;;;;;;28.70;11.50;;;;;;;9.75;50.65;101421.22;4438264;32;20859;-69
2022/03/27 04:37:42;;;;;;;27.52;11.30;;;;;;;9.64;51.17;101420.25;4438214;32;20085;-69
2022/03/27 04:40:13;;;;;;;23.10;11.25;;;;;;;9.54;51.61;101425.44;4423899;32;20113;-69
2022/03/27 04:42:42;;;;;;;28.45;12.20;;;;;;;9.49;51.89;101426.25;4438385;32;20432;-69
2022/03/27 04:45:10;;;;;;;28.50;12.15;;;;;;;9.45;52.25;101446.41;4438383;32;20148;-69
2022/03/27 04:47:41;;;;;;;24.60;12.90;;;;;;;9.42;52.34;101454.25;4438030;32;20097;-69
2022/03/27 04:50:09;;;;;;;26.67;10.75;;;;;;;9.45;52.39;101446.41;4438569;32;20501;-69
2022/03/27 04:52:37;;;;;;;38.70;11.68;;;;;;;9.44;52.52;101459.56;4439872;32;20172;-69
2022/03/27 04:55:05;;;;;;;34.65;12.50;;;;;;;9.55;52.96;101464.03;4439881;32;20085;-69
2022/03/27 04:57:38;;;;;;;37.47;12.95;;;;;;;9.52;53.17;101485.06;4439798;32;20122;-69
2022/03/27 05:00:10;;;;;;;22.23;11.20;;;;;;;9.57;53.28;101492.97;4439827;32;20118;-69
2022/03/27 05:02:38;;;;;;;36.50;11.32;;;;;;;9.58;51.82;101500.91;4439843;32;20097;-69
2022/03/27 05:05:08;;;;;;;25.40;11.63;;;;;;;9.60;52.36;101500.03;4439805;32;20455;-69
2022/03/27 05:07:36;;;;;;;26.95;11.43;;;;;;;9.67;52.77;101510.63;4439916;32;20150;-69
2022/03/27 05:10:05;;;;;;;31.35;12.57;;;;;;;9.66;52.39;101515.91;4439788;32;20883;-69
2022/03/27 05:12:33;;;;;;;29.95;12.13;;;;;;;9.56;52.99;101523.69;4439808;32;20168;-69
2022/03/27 05:15:00;;;;;;;33.72;12.75;;;;;;;9.37;52.87;101516.47;4439807;32;20108;-69
2022/03/27 05:17:28;;;;;;;27.73;12.18;;;;;;;9.43;52.02;101528.78;4439776;32;20093;-69
2022/03/27 05:19:56;;;;;;;33.75;12.57;;;;;;;9.33;52.75;101535.72;4439651;32;20162;-69
2022/03/27 05:22:23;;;;;;;25.90;12.23;;;;;;;9.21;53.23;101539.06;4439726;32;20132;-69
2022/03/27 05:24:52;;;;;;;26.83;12.20;;;;;;;9.10;53.75;101541.56;4439712;32;20081;-69
2022/03/27 05:27:19;;;;;;;32.22;12.27;;;;;;;9.05;53.46;101545.91;4439580;32;20101;-69
2022/03/27 05:29:46;;;;;;;38.00;12.27;;;;;;;9.05;53.42;101540.62;4439632;32;20128;-69
2022/03/27 05:32:13;;;;;;;24.02;11.45;;;;;;;9.08;53.58;101535.41;4439608;32;20097;-69
2022/03/27 05:34:41;;;;;;;24.48;11.20;;;;;;;9.11;53.48;101545.06;4439684;32;20802;-69
2022/03/27 05:37:08;;;;;;;20.92;10.27;;;;;;;9.22;53.02;101543.47;4439555;32;20144;-69
2022/03/27 05:39:35;;;;;;;32.00;10.65;;;;;;;9.28;53.05;101547.91;4439593;32;20542;-69
2022/03/27 05:42:03;;;;;;;28.15;10.30;;;;;;;9.40;53.31;101534.94;4439456;32;20158;-69
2022/03/27 05:44:30;;;;;;;27.35;9.60;;;;;;;9.41;53.55;101541.94;4439485;32;20089;-69
2022/03/27 05:46:57;;;;;;;18.73;9.00;;;;;;;9.39;53.88;101548.91;4439451;32;20502;-69
2022/03/27 05:49:24;;;;;;;20.08;8.55;;;;;;;9.50;54.03;101552.56;4439433;32;20136;-69
2022/03/27 05:51:51;;;;;;;18.20;7.72;;;;;;;9.54;53.17;101559.63;4439445;32;20088;-69
2022/03/27 05:54:18;;;;;;;15.48;8.48;;;;;;;9.54;54.51;101553.47;4439618;32;20902;-69
2022/03/27 05:56:46;;;;;;;18.73;7.75;;;;;;;9.45;55.20;101559.53;4439313;32;20619;-69
2022/03/27 05:59:14;;;;;;;16.67;8.23;;;;;;;9.55;54.43;101568.41;4439329;32;20089;-69
2022/03/27 06:01:41;;;;;;;23.73;7.75;;;;;;;9.74;53.42;101573.00;4439424;32;20125;-69
2022/03/27 06:04:08;;;;;;;14.52;7.47;;;;;;;9.99;53.28;101576.75;4439435;32;20081;-69
2022/03/27 06:06:35;;;;;;;19.15;8.48;;;;;;;9.97;53.11;101575.00;4439582;32;20101;-69
2022/03/27 06:09:02;;;;;;;12.90;7.12;;;;;;;10.01;52.62;101575.03;4439321;32;20144;-69
2022/03/27 06:11:30;;;;;;;14.73;7.97;;;;;;;10.17;52.52;101585.69;4439314;32;20180;-69
2022/03/27 06:13:57;;;;;;;12.00;7.45;;;;;;;10.30;51.98;101590.25;4439335;32;20107;-69
2022/03/27 06:16:24;;;;;;;12.43;6.37;;;;;;;10.33;52.44;101592.91;4439526;32;20093;-69
2022/03/27 06:18:51;;;;;;;17.58;7.15;;;;;;;10.36;51.52;101592.94;4439172;32;20441;-69
2022/03/27 06:21:18;;;;;;;15.00;7.53;;;;;;;10.57;51.29;101602.78;4439205;32;20594;-69
2022/03/27 06:23:46;;;;;;;16.45;7.28;;;;;;;10.63;51.60;101609.81;4439491;32;20096;-69
2022/03/27 06:26:13;;;;;;;11.73;6.37;;;;;;;10.66;51.47;101602.81;4439160;32;20136;-69
2022/03/27 06:28:40;;;;;;;16.85;7.12;;;;;;;10.96;50.76;101604.78;4439231;32;20093;-69
2022/03/27 06:31:07;;;;;;;13.73;7.65;;;;;;;11.16;50.23;101614.56;4439137;32;20109;-69
2022/03/27 06:33:35;;;;;;;15.93;6.47;;;;;;;11.17;49.96;101614.59;4439241;32;20174;-69
2022/03/27 06:36:02;;;;;;;18.17;6.95;;;;;;;11.32;49.92;101610.25;4439109;32;20509;-69
2022/03/27 06:38:29;;;;;;;10.57;6.55;;;;;;;11.51;49.67;101624.41;4439104;32;20564;-69
2022/03/27 06:40:57;;;;;;;15.27;7.35;;;;;;;11.56;48.76;101614.75;4439149;32;20135;-69
2022/03/27 06:43:24;;;;;;;17.27;7.07;;;;;;;11.59;48.91;101614.75;4439066;32;20089;-69
2022/03/27 06:45:51;;;;;;;17.40;7.05;;;;;;;11.71;48.42;101622.72;4439300;32;20097;-69
2022/03/27 06:48:18;;;;;;;13.25;6.68;;;;;;;11.65;48.59;101622.69;4424859;32;20157;-69
2022/03/27 06:50:46;;;;;;;16.23;6.87;;;;;;;11.59;49.15;101630.59;4424675;32;20445;-69
2022/03/27 06:53:20;;;;;;;19.75;6.25;;;;;;;11.72;47.92;101635.03;4439205;32;20089;-69
2022/03/27 06:55:48;;;;;;;10.40;6.57;;;;;;;11.78;47.77;101626.28;4439114;32;20100;-69
2022/03/27 06:58:15;;;;;;;17.20;7.70;;;;;;;11.71;48.83;101620.09;4438993;32;20171;-70
2022/03/27 07:03:28;;;;;;;12.65;7.05;;;;;;;11.81;47.58;101626.28;4438829;32;20168;-70
2022/03/27 07:05:56;;;;;;;9.93;6.45;;;;;;;11.57;49.10;101630.59;4438655;32;20180;-69
2022/03/27 07:08:24;;;;;;;11.25;7.03;;;;;;;11.63;47.97;101627.09;4439038;32;20450;-69
2022/03/27 07:10:51;;;;;;;14.23;6.50;;;;;;;11.57;49.22;101633.22;4439113;32;20193;-69
2022/03/27 07:13:19;;;;;;;12.20;7.75;;;;;;;11.60;50.05;101627.09;4438358;32;20088;-69
2022/03/27 07:15:48;;;;;;;14.68;7.80;;;;;;;11.66;48.24;101632.38;4438884;32;20101;-69
2022/03/27 07:18:20;;;;;;;13.25;6.78;;;;;;;11.63;49.81;101635.03;4438861;32;20577;-69
2022/03/27 07:20:47;;;;;;;13.15;6.53;;;;;;;11.63;49.83;101641.19;4438926;32;20137;-69
2022/03/27 07:23:20;;;;;;;8.95;6.20;;;;;;;11.76;49.20;101643.84;4438754;32;20144;-70
2022/03/27 07:25:50;;;;;;;13.35;6.28;;;;;;;11.77;50.02;101640.37;4438829;32;20154;-70
2022/03/27 07:28:21;;;;;;;10.80;5.43;;;;;;;11.95;50.01;101646.59;4438757;32;20153;-70
2022/03/27 07:30:48;;;;;;;8.13;5.65;;;;;;;12.08;49.78;101641.34;4438777;32;20644;-69
2022/03/27 07:33:16;;;;;;;13.02;6.32;;;;;;;12.10;49.48;101648.41;4438833;32;20440;-70
2022/03/27 07:35:44;;;;;;;9.13;5.43;;;;;;;12.20;50.25;101650.19;4438853;32;20131;-70
2022/03/27 07:38:11;;;;;;;13.55;6.30;;;;;;;11.99;50.22;101649.25;4438701;32;20104;-70
2022/03/27 07:40:38;;;;;;;15.35;6.55;;;;;;;12.06;49.83;101644.00;4438721;32;20097;-70
2022/03/27 07:43:06;;;;;;;13.73;5.95;;;;;;;12.28;49.93;101644.03;4438743;32;20611;-70
2022/03/27 07:45:35;;;;;;;15.57;6.93;;;;;;;12.32;50.32;101659.00;4438962;32;20123;-70
2022/03/27 07:48:03;;;;;;;12.27;6.45;;;;;;;12.41;49.74;101656.38;4438714;32;20120;-70
2022/03/27 07:50:31;;;;;;;23.73;6.47;;;;;;;12.39;49.85;101660.75;4438754;32;20177;-70
2022/03/27 07:53:01;;;;;;;20.75;7.10;;;;;;;12.62;48.85;101668.72;4438667;32;20085;-70
2022/03/27 07:55:28;;;;;;;11.40;6.37;;;;;;;12.56;48.77;101668.72;4438796;32;20430;-70
2022/03/27 07:57:57;;;;;;;20.77;6.65;;;;;;;12.68;48.43;101661.69;4438577;32;20257;-69
2022/03/27 08:00:27;;;;;;;12.82;6.93;;;;;;;12.90;48.55;101667.84;4438597;32;20105;-70
2022/03/27 08:02:56;;;;;;;19.23;6.85;;;;;;;12.97;48.28;101665.16;4438734;32;20187;-70
2022/03/27 08:05:23;;;;;;;27.52;7.93;;;;;;;13.04;48.24;101664.25;4438579;32;20496;-70
2022/03/27 08:07:50;;;;;;;12.55;6.90;;;;;;;12.78;48.87;101666.94;4438433;32;20089;-70
2022/03/27 08:10:18;;;;;;;12.65;7.20;;;;;;;12.83;48.55;101670.50;4438476;32;20479;-70
2022/03/27 08:12:46;;;;;;;11.85;6.75;;;;;;;12.97;49.11;101667.81;4438502;32;20124;-70
2022/03/27 08:15:14;;;;;;;13.80;6.93;;;;;;;12.88;48.42;101663.41;4438560;32;20127;-70
2022/03/27 08:17:51;;;;;;;14.45;6.80;;;;;;;13.14;47.95;101666.00;4438414;32;20090;-70
2022/03/27 08:20:18;;;;;;;14.87;6.47;;;;;;;13.03;48.15;101662.50;4438503;32;20417;-70
2022/03/27 08:22:46;;;;;;;12.80;7.28;;;;;;;13.12;48.18;101665.16;4438353;32;20093;-70
2022/03/27 08:26:55;;;;;;;14.48;6.87;;;;;;;13.03;47.89;101668.69;4437441;32;20120;-70
2022/03/27 08:28:01;;;;;;;10.77;7.20;;;;;;;13.08;47.64;101660.75;4438369;32;20097;-70
2022/03/27 08:30:28;;;;;;;13.02;7.43;;;;;;;13.28;47.95;101653.66;4438270;32;20150;-70
2022/03/27 08:32:55;;;;;;;18.50;7.80;;;;;;;13.74;46.40;101661.44;4438323;32;20097;-70
2022/03/27 08:35:22;;;;;;;16.62;7.15;;;;;;;13.76;45.95;101664.97;4438207;32;20670;-70
2022/03/27 08:37:50;;;;;;;12.37;7.37;;;;;;;13.63;46.49;101656.19;4438265;32;20516;-70
2022/03/27 08:40:17;;;;;;;8.85;6.60;;;;;;;13.82;46.63;101656.13;4423807;32;20140;-70
2022/03/27 08:42:45;;;;;;;14.70;7.50;;;;;;;13.87;45.54;101660.50;4438042;32;20093;-70
2022/03/27 08:45:12;;;;;;;12.40;7.65;;;;;;;13.84;45.72;101664.94;4437995;32;20094;-70
2022/03/27 08:47:40;;;;;;;17.23;7.28;;;;;;;13.28;46.79;101652.78;4438130;32;20094;-70
2022/03/27 08:50:34;;;;;;;17.27;7.37;;;;;;;13.78;46.19;101663.22;4438217;32;20464;-70
2022/03/27 08:53:07;;;;;;;13.93;6.93;;;;;;;14.25;45.65;101664.72;4437969;32;20513;-70
2022/03/27 08:55:57;;;;;;;14.63;7.15;;;;;;;14.19;44.96;101666.50;4437921;32;20093;-70
2022/03/27 08:58:31;;;;;;;11.63;7.70;;;;;;;14.05;44.99;101670.13;4437715;32;20557;-70
2022/03/27 09:00:58;;;;;;;16.65;8.02;;;;;;;13.79;45.37;101666.75;4437830;32;20119;-70
2022/03/27 09:03:26;;;;;;;12.35;7.18;;;;;;;14.24;44.60;101670.91;4437795;32;20137;-70
2022/03/27 09:05:54;;;;;;;13.05;7.43;;;;;;;14.60;43.57;101676.00;4437884;32;20097;-70
2022/03/27 09:08:32;;;;;;;12.07;6.47;;;;;;;14.73;43.61;101667.03;4437589;32;20144;-70
2022/03/27 09:11:01;;;;;;;24.15;8.38;;;;;;;14.94;42.90;101664.16;4437858;32;20097;-70
2022/03/27 09:13:30;;;;;;;18.10;7.10;;;;;;;14.64;43.10;101665.34;4437651;32;20560;-70
2022/03/27 09:16:03;;;;;;;11.65;6.95;;;;;;;14.43;44.10;101679.59;4437694;32;20123;-70
2022/03/27 09:18:52;;;;;;;13.95;7.50;;;;;;;14.53;43.98;101672.50;4437546;32;20449;-70
2022/03/27 09:21:21;;;;;;;14.40;7.35;;;;;;;14.67;43.20;101670.63;4437563;32;20089;-70
2022/03/27 09:23:58;;;;;;;13.88;7.03;;;;;;;14.70;42.96;101675.91;4437525;32;20554;-70
2022/03/27 09:26:26;;;;;;;21.17;7.07;;;;;;;14.67;42.97;101677.72;4437581;32;20138;-70
2022/03/27 09:29:06;;;;;;;15.38;7.82;;;;;;;14.98;42.88;101681.84;4437440;32;20180;-70
2022/03/27 09:31:33;;;;;;;14.45;7.05;;;;;;;14.26;44.34;101668.22;4437262;32;20101;-70
2022/03/27 09:34:03;;;;;;;17.50;7.05;;;;;;;14.58;43.86;101666.25;4437230;32;20118;-70
2022/03/27 09:36:40;;;;;;;11.65;7.37;;;;;;;15.16;42.40;101667.53;4437808;32;20089;-70
2022/03/27 09:39:20;;;;;;;11.48;7.87;;;;;;;15.38;41.43;101667.28;4439702;32;20153;-70
2022/03/27 09:41:47;;;;;;;13.65;6.82;;;;;;;15.52;41.62;101666.22;4439654;32;20097;-70
2022/03/27 09:44:36;;;;;;;17.70;7.35;;;;;;;16.21;40.67;101661.78;4439485;32;20093;-70
2022/03/27 09:47:06;;;;;;;17.35;8.25;;;;;;;15.96;40.57;101661.25;4439543;32;20112;-70
2022/03/27 09:49:34;;;;;;;18.35;8.02;;;;;;;16.19;40.02;101664.47;4439502;32;20180;-70
2022/03/27 09:52:08;;;;;;;15.85;6.95;;;;;;;15.95;39.93;101663.03;4439583;32;20504;-70
2022/03/27 09:54:59;;;;;;;18.45;7.82;;;;;;;16.16;40.41;101663.66;4439618;32;20191;-70
2022/03/27 09:57:28;;;;;;;10.95;7.18;;;;;;;16.00;39.94;101655.88;4439601;32;20085;-70
2022/03/27 10:00:13;;;;;;;14.95;7.35;;;;;;;16.63;39.41;101659.38;4439386;32;20082;-70
2022/03/27 10:02:42;;;;;;;18.87;7.05;;;;;;;17.22;38.15;101652.12;4439371;32;20105;-70
2022/03/27 10:05:13;;;;;;;13.05;6.82;;;;;;;17.52;37.37;101661.28;4439346;32;20560;-70
2022/03/27 10:07:48;;;;;;;10.63;6.45;;;;;;;17.34;36.97;101659.88;4439454;32;20097;-70
2022/03/27 10:10:20;;;;;;;17.48;6.90;;;;;;;17.11;36.91;101654.13;4439417;32;20085;-70
2022/03/27 10:12:50;;;;;;;13.25;6.47;;;;;;;17.43;36.89;101648.16;4439368;32;20089;-70
2022/03/27 10:15:22;;;;;;;10.20;6.50;;;;;;;17.84;36.32;101651.78;4439376;32;20156;-70
2022/03/27 10:18:13;;;;;;;12.77;6.65;;;;;;;17.65;36.04;101645.94;4439415;32;20088;-70
2022/03/27 10:20:43;;;;;;;7.47;6.10;;;;;;;17.91;35.74;101651.63;4439215;32;20149;-70
2022/03/27 10:23:18;;;;;;;16.58;6.87;;;;;;;18.24;34.82;101642.91;4439243;32;20100;-70
2022/03/27 10:25:50;;;;;;;9.75;7.10;;;;;;;18.12;35.11;101652.91;4424706;32;20424;-70
2022/03/27 10:28:18;;;;;;;19.08;6.95;;;;;;;17.68;35.83;101649.41;4439224;32;20123;-70
2022/03/27 10:30:49;;;;;;;11.73;7.35;;;;;;;17.33;35.96;101654.59;4438968;32;20123;-70
2022/03/27 10:33:18;;;;;;;13.18;7.00;;;;;;;17.43;35.77;101657.03;4439179;32;20172;-70
2022/03/27 10:36:05;;;;;;;12.50;6.93;;;;;;;17.83;34.61;101656.22;4439129;32;20073;-70
2022/03/27 10:38:54;;;;;;;13.27;6.60;;;;;;;18.05;33.62;101645.09;4439222;32;20108;-70
2022/03/27 10:41:43;;;;;;;10.98;6.28;;;;;;;18.15;33.61;101647.50;4439030;32;20516;-70
2022/03/27 10:44:33;;;;;;;9.88;6.93;;;;;;;18.19;34.18;101642.97;4424711;32;20101;-70
2022/03/27 10:47:20;;;;;;;10.82;6.15;;;;;;;18.27;34.02;101642.78;4438820;32;20146;-70
2022/03/27 10:50:08;;;;;;;12.85;7.40;;;;;;;18.36;34.07;101643.47;4439093;32;20132;-70
2022/03/27 10:52:43;;;;;;;14.32;6.35;;;;;;;18.32;33.53;101640.91;4427415;32;20094;-70
2022/03/27 10:55:14;;;;;;;10.90;6.25;;;;;;;18.87;33.27;101642.25;4439023;32;20088;-70
2022/03/27 10:57:51;;;;;;;17.30;6.28;;;;;;;19.32;32.13;101647.22;4439039;32;20078;-70
2022/03/27 11:00:44;;;;;;;11.25;6.18;;;;;;;20.05;31.22;101638.88;4439032;32;20445;-70
2022/03/27 11:03:44;;;;;;;17.02;6.85;;;;;;;19.41;31.98;101633.63;4436048;32;20481;-70
2022/03/27 11:06:25;;;;;;;8.32;6.10;;;;;;;20.40;30.33;101629.72;4439085;32;20173;-70
2022/03/27 11:08:54;;;;;;;15.45;6.82;;;;;;;21.63;28.54;101617.38;4439078;32;20093;-70
2022/03/27 11:11:37;;;;;;;17.50;6.55;;;;;;;22.58;26.96;101613.56;4438896;32;20109;-70
2022/03/27 11:14:06;;;;;;;10.00;6.00;;;;;;;23.05;26.51;101616.91;4438934;32;20120;-70
2022/03/27 11:17:03;;;;;;;8.10;6.03;;;;;;;24.60;25.06;101628.47;4438946;32;20092;-70
2022/03/27 11:19:46;;;;;;;18.33;6.70;;;;;;;24.00;24.31;101628.69;4438816;32;20132;-70
2022/03/27 11:22:58;;;;;;;9.75;6.37;;;;;;;24.64;24.27;101616.56;4438776;32;20093;-70
2022/03/27 11:25:38;;;;;;;11.25;6.05;;;;;;;25.65;22.71;101616.56;4430835;32;20484;-70
2022/03/27 11:28:08;;;;;;;12.00;6.15;;;;;;;25.44;22.52;101621.34;4438956;32;20714;-70
2022/03/27 11:30:40;;;;;;;11.40;7.05;;;;;;;26.76;21.28;101612.97;4438800;32;20093;-70
2022/03/27 11:33:29;;;;;;;10.23;7.12;;;;;;;26.35;21.33;101611.72;4438856;32;20219;-70
2022/03/27 11:36:05;;;;;;;10.45;6.95;;;;;;;25.83;21.86;101605.75;4438804;32;20116;-71
2022/03/27 11:38:51;;;;;;;11.40;6.87;;;;;;;26.19;22.36;101605.50;4438712;32;20463;-71